Terminal Aerodrome Forecast
Issued by NWS

Home | Current Version | Previous Version | Text Only | Print | Product List | Glossary On
Versions: 1 2 3 4 5 6 7 8 9 10 11 12 13 14 15 16
603
FTUS46 KSGX 212327
TAFSNA
TAF
KSNA 212327Z 2200/2224 VRB06KT P6SM SCT025 SCT040 BKN180
     FM221200 14012G18KT P6SM VCSH SCT025 BKN035 OVC050
     FM221600 15015G25KT 5SM -RA SCT010 BKN025 OVC040
     FM222000 16020G30KT 3SM SHRA BR BKN012 OVC030=

USA.gov is the U.S. government's official web portal to all federal, state and local government web resources and services.